Time;durP1;ratioP1;P1;durP2;ratioP2;P2;SDS_P1;SDS_P2;PMS_P1;PMS_P2;Temp;Humidity;BMP_temperature;BMP_pressure;BME280_temperature;BME280_humidity;BME280_pressure;Samples;Min_cycle;Max_cycle;Signal;HPM_P1;HPM_P2
2022/04/27 00:00:55;;;;;;;;;;;5.00;99.90;;;;;;5063531;28;19923;-72
2022/04/27 00:03:21;;;;;;;;;;;5.00;99.90;;;;;;5073685;28;19947;-75
2022/04/27 00:05:47;;;;;;;;;;;5.00;99.90;;;;;;5074905;28;19916;-74
2022/04/27 00:08:13;;;;;;;;;;;4.90;99.90;;;;;;5075796;28;19912;-74
2022/04/27 00:10:38;;;;;;;;;;;4.90;99.90;;;;;;5077366;28;19915;-74
2022/04/27 00:13:04;;;;;;;;;;;4.90;99.90;;;;;;5072476;28;19916;-74
2022/04/27 00:15:29;;;;;;;;;;;4.90;99.90;;;;;;5075411;28;20331;-74
2022/04/27 00:17:55;;;;;;;;;;;4.80;99.90;;;;;;5071176;28;19916;-75
2022/04/27 00:20:21;;;;;;;;;;;4.70;99.90;;;;;;5074282;28;19920;-74
2022/04/27 00:22:46;;;;;;;;;;;4.70;99.90;;;;;;5075757;28;19967;-75
2022/04/27 00:25:12;;;;;;;;;;;4.60;99.90;;;;;;5075732;28;20437;-75
2022/04/27 00:27:37;;;;;;;;;;;4.50;99.90;;;;;;5072392;28;20260;-76
2022/04/27 00:30:03;;;;;;;;;;;4.60;99.90;;;;;;5077169;28;19912;-76
2022/04/27 00:32:29;;;;;;;;;;;4.60;99.90;;;;;;5081509;28;19913;-74
2022/04/27 00:34:54;;;;;;;;;;;4.60;99.90;;;;;;5076728;28;19909;-75
2022/04/27 00:37:20;;;;;;;;;;;4.60;99.90;;;;;;5066833;28;19959;-75
2022/04/27 00:39:45;;;;;;;;;;;4.80;99.90;;;;;;5059098;28;19917;-75
2022/04/27 00:42:15;;;;;;;;;;;4.80;99.90;;;;;;5056725;28;19912;-73
2022/04/27 00:44:44;;;;;;;;;;;5.00;99.90;;;;;;5056708;28;19962;-75
2022/04/27 00:47:13;;;;;;;;;;;5.20;99.90;;;;;;5071175;28;19923;-75
2022/04/27 00:50:02;;;;;;;;;;;5.30;99.90;;;;;;5069296;28;19958;-75
2022/04/27 00:52:28;;;;;;;;;;;5.50;99.90;;;;;;5074899;28;19913;-75
2022/04/27 00:54:55;;;;;;;;;;;5.60;99.90;;;;;;5068644;28;19913;-75
2022/04/27 00:57:24;;;;;;;;;;;5.50;99.90;;;;;;5056828;28;19924;-76
2022/04/27 00:59:50;;;;;;;;;;;5.50;99.90;;;;;;5068654;28;20016;-75
2022/04/27 01:02:16;;;;;;;;;;;5.50;99.90;;;;;;5076700;28;20003;-75
2022/04/27 01:04:42;;;;;;;;;;;5.50;99.90;;;;;;5074261;28;20300;-74
2022/04/27 01:07:08;;;;;;;;;;;5.40;99.90;;;;;;5073844;28;19924;-75
2022/04/27 01:09:33;;;;;;;;;;;5.50;99.90;;;;;;5061021;28;20266;-75
2022/04/27 01:11:59;;;;;;;;;;;5.40;99.90;;;;;;5071460;28;19923;-75
2022/04/27 01:14:25;;;;;;;;;;;5.50;99.90;;;;;;5070474;28;19923;-75
2022/04/27 01:16:52;;;;;;;;;;;5.50;99.90;;;;;;5068253;28;19912;-76
2022/04/27 01:19:18;;;;;;;;;;;5.60;99.90;;;;;;5073617;28;19912;-74
2022/04/27 01:21:43;;;;;;;;;;;5.60;99.90;;;;;;5074889;28;20262;-75
2022/04/27 01:24:09;;;;;;;;;;;5.50;99.90;;;;;;5074693;28;19943;-75
2022/04/27 01:26:37;;;;;;;;;;;5.50;99.90;;;;;;5066423;28;20208;-75
2022/04/27 01:29:02;;;;;;;;;;;5.50;99.90;;;;;;5055906;28;19973;-75
2022/04/27 01:31:28;;;;;;;;;;;5.40;99.90;;;;;;5059466;28;19917;-75
2022/04/27 01:33:55;;;;;;;;;;;5.40;99.90;;;;;;5056096;28;19908;-75
2022/04/27 01:36:20;;;;;;;;;;;5.40;99.90;;;;;;5066247;28;19923;-74
2022/04/27 01:38:46;;;;;;;;;;;5.30;99.90;;;;;;5069670;28;20216;-74
2022/04/27 01:41:11;;;;;;;;;;;5.30;99.90;;;;;;5074141;28;19912;-76
2022/04/27 01:43:37;;;;;;;;;;;5.40;99.90;;;;;;5072930;28;20011;-75
2022/04/27 01:46:05;;;;;;;;;;;5.40;99.90;;;;;;5062373;28;19917;-76
2022/04/27 01:48:31;;;;;;;;;;;5.50;99.90;;;;;;5062190;28;19917;-74
2022/04/27 01:50:57;;;;;;;;;;;5.60;99.90;;;;;;5064230;28;19920;-76
2022/04/27 01:56:06;;;;;;;;;;;5.60;99.90;;;;;;5062004;28;19919;-76
2022/04/27 01:58:32;;;;;;;;;;;5.60;99.90;;;;;;5066353;28;20262;-76
2022/04/27 02:00:57;;;;;;;;;;;5.50;99.90;;;;;;5068128;28;19952;-76
2022/04/27 02:03:23;;;;;;;;;;;5.50;99.90;;;;;;5066447;28;19913;-77
2022/04/27 02:05:49;;;;;;;;;;;5.50;99.90;;;;;;5072170;28;19913;-75
2022/04/27 02:08:15;;;;;;;;;;;5.50;99.90;;;;;;5072282;28;19921;-75
2022/04/27 02:10:41;;;;;;;;;;;5.50;99.90;;;;;;5072455;28;19912;-75
2022/04/27 02:13:07;;;;;;;;;;;5.50;99.90;;;;;;5071705;28;19970;-75
2022/04/27 02:15:33;;;;;;;;;;;5.50;99.90;;;;;;5060591;28;19916;-71
2022/04/27 02:17:59;;;;;;;;;;;5.50;99.90;;;;;;5072871;28;20000;-71
2022/04/27 02:20:24;;;;;;;;;;;5.50;99.90;;;;;;5068538;28;19927;-70
2022/04/27 02:22:50;;;;;;;;;;;5.50;99.90;;;;;;5073680;28;20386;-71
2022/04/27 02:25:17;;;;;;;;;;;5.40;99.90;;;;;;5075380;28;19909;-71
2022/04/27 02:27:43;;;;;;;;;;;5.30;99.90;;;;;;5070990;28;19965;-71
2022/04/27 02:30:09;;;;;;;;;;;5.30;99.90;;;;;;5075186;28;19916;-71
2022/04/27 02:32:35;;;;;;;;;;;5.30;99.90;;;;;;5072372;28;19912;-71
2022/04/27 02:35:00;;;;;;;;;;;5.30;99.90;;;;;;5074071;28;19912;-72
2022/04/27 02:37:26;;;;;;;;;;;5.30;99.90;;;;;;5073488;28;19912;-71
2022/04/27 02:39:52;;;;;;;;;;;5.30;99.90;;;;;;5072114;28;19935;-71
2022/04/27 02:42:18;;;;;;;;;;;5.20;99.90;;;;;;5074436;28;19923;-72
2022/04/27 02:44:44;;;;;;;;;;;5.20;99.90;;;;;;5074000;28;19958;-72
2022/04/27 02:47:09;;;;;;;;;;;5.30;99.90;;;;;;5076561;28;19944;-71
2022/04/27 02:52:19;;;;;;;;;;;5.50;99.90;;;;;;5071383;28;20107;-72
2022/04/27 02:54:45;;;;;;;;;;;5.50;99.90;;;;;;5063081;28;20382;-72
2022/04/27 02:57:11;;;;;;;;;;;5.50;99.90;;;;;;5076189;28;19916;-72
2022/04/27 02:59:36;;;;;;;;;;;5.50;99.90;;;;;;5076320;28;19917;-72
2022/04/27 03:02:02;;;;;;;;;;;5.50;99.90;;;;;;5057277;28;20088;-71
2022/04/27 03:04:28;;;;;;;;;;;5.50;99.90;;;;;;5058541;28;19975;-72
2022/04/27 03:06:53;;;;;;;;;;;5.50;99.90;;;;;;5057674;28;19912;-72
2022/04/27 03:09:19;;;;;;;;;;;5.50;99.90;;;;;;5064028;28;20369;-72
2022/04/27 03:11:44;;;;;;;;;;;5.40;99.90;;;;;;5065161;28;20255;-72
2022/04/27 03:14:10;;;;;;;;;;;5.40;99.90;;;;;;5058407;28;19913;-71
2022/04/27 03:16:35;;;;;;;;;;;5.40;99.90;;;;;;5057388;28;19921;-76
2022/04/27 03:19:01;;;;;;;;;;;5.40;99.90;;;;;;5069216;28;19959;-72
2022/04/27 03:21:29;;;;;;;;;;;5.30;99.90;;;;;;5067899;28;19921;-71
2022/04/27 03:23:55;;;;;;;;;;;5.30;99.90;;;;;;5073987;28;20421;-71
2022/04/27 03:26:21;;;;;;;;;;;5.30;99.90;;;;;;5077516;28;19920;-72
2022/04/27 03:28:46;;;;;;;;;;;5.30;99.90;;;;;;5078222;28;19908;-72
2022/04/27 03:31:12;;;;;;;;;;;5.30;99.90;;;;;;5075028;28;19916;-71
2022/04/27 03:33:38;;;;;;;;;;;5.20;99.90;;;;;;5068940;28;19919;-72
2022/04/27 03:36:04;;;;;;;;;;;5.20;99.90;;;;;;5077157;28;20299;-72
2022/04/27 03:38:30;;;;;;;;;;;5.20;99.90;;;;;;5073693;28;19954;-72
2022/04/27 03:40:56;;;;;;;;;;;5.20;99.90;;;;;;5075598;28;19970;-72
2022/04/27 03:43:21;;;;;;;;;;;5.30;99.90;;;;;;5071381;28;20312;-75
2022/04/27 03:45:47;;;;;;;;;;;5.20;99.90;;;;;;5076043;28;19919;-72
2022/04/27 03:48:12;;;;;;;;;;;5.30;99.90;;;;;;5073741;28;19916;-72
2022/04/27 03:50:38;;;;;;;;;;;5.30;99.90;;;;;;5074815;28;19912;-72
2022/04/27 03:53:04;;;;;;;;;;;5.30;99.90;;;;;;5075833;28;19915;-72
2022/04/27 03:55:33;;;;;;;;;;;5.40;99.90;;;;;;5071444;28;20185;-71
2022/04/27 03:57:59;;;;;;;;;;;5.40;99.90;;;;;;5076689;28;19912;-71
2022/04/27 04:00:25;;;;;;;;;;;5.40;99.90;;;;;;5073949;28;20311;-71
2022/04/27 04:02:50;;;;;;;;;;;5.40;99.90;;;;;;5075788;28;19908;-72
2022/04/27 04:05:16;;;;;;;;;;;5.40;99.90;;;;;;5072564;28;20207;-72
2022/04/27 04:07:41;;;;;;;;;;;5.30;99.90;;;;;;5075482;28;19912;-72
2022/04/27 04:10:07;;;;;;;;;;;5.10;99.90;;;;;;5075834;28;19966;-72
2022/04/27 04:12:33;;;;;;;;;;;4.90;99.90;;;;;;5074270;28;19966;-71
2022/04/27 04:14:59;;;;;;;;;;;4.90;99.90;;;;;;5076805;28;19958;-71
2022/04/27 04:17:24;;;;;;;;;;;4.80;99.90;;;;;;5071707;28;20744;-75
2022/04/27 04:19:50;;;;;;;;;;;4.80;99.90;;;;;;5074985;28;19916;-72
2022/04/27 04:22:15;;;;;;;;;;;4.80;99.90;;;;;;5076072;28;19927;-71
2022/04/27 04:28:29;;;;;;;;;;;4.70;99.90;;;;;;5075466;28;19923;-71
2022/04/27 04:30:13;;;;;;;;;;;4.60;99.90;;;;;;5075018;28;19959;-73
2022/04/27 04:32:40;;;;;;;;;;;4.60;99.90;;;;;;5075132;28;19951;-72
2022/04/27 04:35:06;;;;;;;;;;;4.60;99.90;;;;;;5070341;28;19916;-72
2022/04/27 04:37:32;;;;;;;;;;;4.60;99.90;;;;;;5074820;28;19912;-72
2022/04/27 04:39:58;;;;;;;;;;;4.50;99.90;;;;;;5063609;28;20047;-72
2022/04/27 04:42:23;;;;;;;;;;;4.60;99.90;;;;;;5068652;28;20003;-72
2022/04/27 04:44:49;;;;;;;;;;;4.70;99.90;;;;;;5074883;28;19913;-72
2022/04/27 04:47:14;;;;;;;;;;;4.80;99.90;;;;;;5076973;28;19912;-72
2022/04/27 04:49:40;;;;;;;;;;;5.00;99.90;;;;;;5062007;28;20312;-72
2022/04/27 04:52:07;;;;;;;;;;;5.10;99.90;;;;;;5075577;28;20207;-72
2022/04/27 04:54:34;;;;;;;;;;;5.20;99.90;;;;;;5075829;28;19924;-72
2022/04/27 04:56:59;;;;;;;;;;;5.30;99.90;;;;;;5071107;28;19916;-72
2022/04/27 04:59:25;;;;;;;;;;;5.40;99.90;;;;;;5074722;28;20327;-72
2022/04/27 05:01:51;;;;;;;;;;;5.50;99.90;;;;;;5071964;28;20311;-71
2022/04/27 05:04:17;;;;;;;;;;;5.50;99.90;;;;;;5056554;28;19913;-71
2022/04/27 05:06:44;;;;;;;;;;;5.60;99.90;;;;;;5054823;28;19915;-76
2022/04/27 05:09:09;;;;;;;;;;;5.60;99.90;;;;;;5074810;28;20326;-71
2022/04/27 05:11:35;;;;;;;;;;;5.60;99.90;;;;;;5073611;28;19925;-72
2022/04/27 05:14:01;;;;;;;;;;;5.70;99.90;;;;;;5072376;28;20748;-72
2022/04/27 05:16:27;;;;;;;;;;;5.70;99.90;;;;;;5076162;28;19908;-71
2022/04/27 05:18:52;;;;;;;;;;;5.70;99.90;;;;;;5076551;28;19912;-71
2022/04/27 05:21:18;;;;;;;;;;;5.70;99.90;;;;;;5076363;28;19939;-71
2022/04/27 05:23:43;;;;;;;;;;;5.80;99.90;;;;;;5075047;28;19958;-71
2022/04/27 05:26:11;;;;;;;;;;;5.90;99.90;;;;;;5075342;28;19912;-72
2022/04/27 05:34:05;;;;;;;;;;;6.00;99.90;;;;;;5070201;28;19923;-70
2022/04/27 05:36:30;;;;;;;;;;;6.10;99.90;;;;;;5073788;28;19920;-71
2022/04/27 05:38:56;;;;;;;;;;;6.20;99.90;;;;;;5073499;28;19955;-72
2022/04/27 05:41:21;;;;;;;;;;;6.30;99.90;;;;;;5073910;28;19964;-72
2022/04/27 05:43:47;;;;;;;;;;;6.40;99.90;;;;;;5070753;28;19913;-71
2022/04/27 05:46:12;;;;;;;;;;;6.60;99.90;;;;;;5073824;28;19927;-71
2022/04/27 05:48:38;;;;;;;;;;;6.80;99.90;;;;;;5069293;28;19912;-72
2022/04/27 05:51:05;;;;;;;;;;;6.90;99.90;;;;;;5071453;28;20203;-71
2022/04/27 05:53:31;;;;;;;;;;;7.10;99.90;;;;;;5063689;28;19919;-72
2022/04/27 05:55:56;;;;;;;;;;;7.20;99.90;;;;;;5074443;28;19928;-71
2022/04/27 05:58:22;;;;;;;;;;;7.30;99.90;;;;;;5070930;28;20019;-72
2022/04/27 06:00:49;;;;;;;;;;;7.30;99.90;;;;;;5072594;28;19963;-71
2022/04/27 06:03:15;;;;;;;;;;;7.40;99.90;;;;;;5054527;28;20307;-71
2022/04/27 06:05:40;;;;;;;;;;;7.40;99.90;;;;;;5073381;28;19912;-72
2022/04/27 06:08:06;;;;;;;;;;;7.50;99.90;;;;;;5063128;28;19940;-72
2022/04/27 06:10:32;;;;;;;;;;;7.70;99.90;;;;;;5072051;28;20242;-72
2022/04/27 06:12:59;;;;;;;;;;;7.80;99.90;;;;;;5072242;28;19923;-72
2022/04/27 06:15:24;;;;;;;;;;;7.80;99.90;;;;;;5070954;28;20583;-72
2022/04/27 06:17:50;;;;;;;;;;;7.90;99.90;;;;;;5060484;28;20007;-72
2022/04/27 06:20:16;;;;;;;;;;;8.00;99.90;;;;;;5067168;28;20188;-72
2022/04/27 06:22:41;;;;;;;;;;;8.00;99.90;;;;;;5078110;28;19955;-71
2022/04/27 06:25:07;;;;;;;;;;;8.10;99.90;;;;;;5077360;28;19909;-71
2022/04/27 06:27:33;;;;;;;;;;;8.20;99.90;;;;;;5077343;28;20236;-72
2022/04/27 06:29:59;;;;;;;;;;;8.30;99.90;;;;;;5078296;28;19909;-72
2022/04/27 06:32:24;;;;;;;;;;;8.40;99.90;;;;;;5077825;28;19956;-72
2022/04/27 06:34:50;;;;;;;;;;;8.50;99.90;;;;;;5078093;28;19939;-71
2022/04/27 06:37:15;;;;;;;;;;;8.50;99.90;;;;;;5077344;28;19917;-71
2022/04/27 06:39:42;;;;;;;;;;;8.70;99.90;;;;;;5065836;28;19920;-71
2022/04/27 06:42:08;;;;;;;;;;;8.70;99.90;;;;;;5076646;28;20254;-71
2022/04/27 06:44:34;;;;;;;;;;;8.80;99.90;;;;;;5081247;28;19908;-71
2022/04/27 06:47:00;;;;;;;;;;;8.90;99.90;;;;;;5076910;28;20003;-72
2022/04/27 06:49:26;;;;;;;;;;;8.90;99.90;;;;;;5077932;28;20255;-72
2022/04/27 06:51:51;;;;;;;;;;;9.00;99.90;;;;;;5078205;28;19919;-71
2022/04/27 06:54:17;;;;;;;;;;;9.10;99.90;;;;;;5078204;28;19908;-72
2022/04/27 06:56:42;;;;;;;;;;;9.20;99.90;;;;;;5078324;28;19920;-71
2022/04/27 06:59:08;;;;;;;;;;;9.30;99.90;;;;;;5076523;28;19921;-72
2022/04/27 07:01:34;;;;;;;;;;;9.40;99.90;;;;;;5078220;28;19947;-72
2022/04/27 07:04:06;;;;;;;;;;;9.50;99.90;;;;;;5066787;28;19974;-76
2022/04/27 07:06:32;;;;;;;;;;;9.70;99.90;;;;;;5077551;28;19920;-72
2022/04/27 07:08:58;;;;;;;;;;;9.90;99.90;;;;;;5077486;28;20323;-76
2022/04/27 07:11:23;;;;;;;;;;;10.00;99.90;;;;;;5077394;28;19962;-74
2022/04/27 07:13:49;;;;;;;;;;;10.20;99.90;;;;;;5076558;28;19917;-71
2022/04/27 07:16:14;;;;;;;;;;;10.20;99.90;;;;;;5070999;28;19951;-72
2022/04/27 07:18:40;;;;;;;;;;;10.40;99.90;;;;;;5069816;28;19920;-72
2022/04/27 07:21:08;;;;;;;;;;;10.50;99.90;;;;;;5075602;28;19927;-73
2022/04/27 07:23:34;;;;;;;;;;;10.60;99.90;;;;;;5082194;28;20366;-72
2022/04/27 07:25:59;;;;;;;;;;;10.60;99.90;;;;;;5069873;28;20071;-72
2022/04/27 07:28:25;;;;;;;;;;;10.70;99.90;;;;;;5062423;28;19919;-75
2022/04/27 07:30:50;;;;;;;;;;;10.80;99.90;;;;;;5074191;28;19916;-72
2022/04/27 07:33:16;;;;;;;;;;;10.90;99.90;;;;;;5075679;28;20409;-72
2022/04/27 07:35:42;;;;;;;;;;;11.00;99.90;;;;;;5071114;28;19917;-71
2022/04/27 07:38:07;;;;;;;;;;;10.90;99.90;;;;;;5068459;28;20287;-72
2022/04/27 07:40:33;;;;;;;;;;;10.90;99.90;;;;;;5071516;28;19921;-72
2022/04/27 07:42:59;;;;;;;;;;;10.90;99.90;;;;;;5074715;28;20332;-72
2022/04/27 07:45:25;;;;;;;;;;;11.00;99.90;;;;;;5072018;28;20214;-72
2022/04/27 07:47:50;;;;;;;;;;;11.10;99.90;;;;;;5072881;28;20303;-72
2022/04/27 07:50:17;;;;;;;;;;;11.10;99.90;;;;;;5073358;28;19916;-71
2022/04/27 07:52:43;;;;;;;;;;;11.30;99.90;;;;;;5074395;28;19916;-71
2022/04/27 07:55:09;;;;;;;;;;;11.40;99.90;;;;;;5074075;28;19919;-72
2022/04/27 07:57:34;;;;;;;;;;;11.30;99.90;;;;;;5073813;28;19927;-72
2022/04/27 08:00:02;;;;;;;;;;;11.10;99.90;;;;;;5068246;28;20035;-72
2022/04/27 08:02:28;;;;;;;;;;;11.30;99.90;;;;;;5072604;28;20008;-72
2022/04/27 08:04:54;;;;;;;;;;;11.20;99.90;;;;;;5068036;28;19996;-73
2022/04/27 08:07:19;;;;;;;;;;;11.30;99.90;;;;;;5070829;28;19912;-72
2022/04/27 08:09:45;;;;;;;;;;;11.50;99.90;;;;;;5072681;28;19916;-71
2022/04/27 08:12:11;;;;;;;;;;;11.50;99.90;;;;;;5014775;28;1678289;-76
2022/04/27 08:14:37;;;;;;;;;;;11.60;99.90;;;;;;5062906;28;19916;-74
2022/04/27 08:17:03;;;;;;;;;;;11.40;99.90;;;;;;5073989;28;20278;-72
2022/04/27 08:19:29;;;;;;;;;;;11.40;99.90;;;;;;5073506;28;19912;-73
2022/04/27 08:21:55;;;;;;;;;;;11.40;99.90;;;;;;5063918;28;19931;-72
2022/04/27 08:24:21;;;;;;;;;;;11.40;99.90;;;;;;5063868;28;19923;-73
2022/04/27 08:26:47;;;;;;;;;;;11.40;99.90;;;;;;5071623;28;19921;-72
2022/04/27 08:29:12;;;;;;;;;;;11.50;99.90;;;;;;5067944;28;20331;-75
2022/04/27 08:31:38;;;;;;;;;;;11.70;99.90;;;;;;5061246;28;19920;-73
2022/04/27 08:34:04;;;;;;;;;;;11.80;99.90;;;;;;5068682;28;19913;-72
2022/04/27 08:36:30;;;;;;;;;;;11.70;99.90;;;;;;5070706;28;19927;-72
2022/04/27 08:38:55;;;;;;;;;;;11.60;99.90;;;;;;5074532;28;20326;-73
2022/04/27 08:41:21;;;;;;;;;;;11.50;99.90;;;;;;5074230;28;19920;-73
2022/04/27 08:43:47;;;;;;;;;;;11.50;99.90;;;;;;5073972;28;19927;-72
2022/04/27 08:46:14;;;;;;;;;;;11.30;99.90;;;;;;5074036;28;19912;-74
2022/04/27 08:48:39;;;;;;;;;;;11.50;99.90;;;;;;5073790;28;20235;-72
2022/04/27 08:51:05;;;;;;;;;;;11.50;99.90;;;;;;5073896;28;19913;-73
2022/04/27 08:53:31;;;;;;;;;;;11.60;99.90;;;;;;5074495;28;20322;-72
2022/04/27 08:55:56;;;;;;;;;;;11.60;99.90;;;;;;5070026;28;20321;-76
2022/04/27 08:58:23;;;;;;;;;;;11.50;99.90;;;;;;5072764;28;19944;-73
2022/04/27 09:00:48;;;;;;;;;;;11.50;99.90;;;;;;5075584;28;19999;-73
2022/04/27 09:03:21;;;;;;;;;;;11.60;99.90;;;;;;5073965;28;20039;-74
2022/04/27 09:06:00;;;;;;;;;;;11.70;99.90;;;;;;5071199;28;19935;-72
2022/04/27 09:08:35;;;;;;;;;;;11.70;99.90;;;;;;5072978;28;19916;-72
2022/04/27 09:11:34;;;;;;;;;;;11.80;99.90;;;;;;5077965;28;19912;-72
2022/04/27 09:14:02;;;;;;;;;;;11.70;99.90;;;;;;5032748;28;19921;-72
2022/04/27 09:20:46;;;;;;;;;;;11.70;99.90;;;;;;5033178;28;19916;-72
2022/04/27 09:22:04;;;;;;;;;;;11.90;99.90;;;;;;5033245;28;19956;-72
2022/04/27 09:24:45;;;;;;;;;;;12.00;99.90;;;;;;5024957;28;19913;-72
2022/04/27 09:27:11;;;;;;;;;;;11.90;99.90;;;;;;5033435;28;19917;-72
2022/04/27 09:29:36;;;;;;;;;;;12.10;99.90;;;;;;5033238;28;20304;-72
2022/04/27 09:32:04;;;;;;;;;;;11.90;99.90;;;;;;5023878;28;19984;-73
2022/04/27 09:34:42;;;;;;;;;;;11.80;99.90;;;;;;5032900;28;19925;-72
2022/04/27 09:37:16;;;;;;;;;;;11.80;99.90;;;;;;5032890;28;19932;-75
2022/04/27 09:39:42;;;;;;;;;;;12.10;99.90;;;;;;5024963;28;19913;-75
2022/04/27 09:42:12;;;;;;;;;;;12.30;99.90;;;;;;5032643;28;20324;-72
2022/04/27 09:44:38;;;;;;;;;;;12.30;99.90;;;;;;5024010;28;19920;-73
2022/04/27 09:47:05;;;;;;;;;;;12.20;99.90;;;;;;5016188;28;19913;-72
2022/04/27 09:49:31;;;;;;;;;;;12.10;99.90;;;;;;5053524;28;19909;-73
2022/04/27 09:51:58;;;;;;;;;;;12.30;99.90;;;;;;5055250;28;19991;-72
2022/04/27 09:54:24;;;;;;;;;;;12.40;99.90;;;;;;5075225;28;19916;-75
2022/04/27 09:56:51;;;;;;;;;;;12.50;99.90;;;;;;5074952;28;19912;-71
2022/04/27 09:59:19;;;;;;;;;;;13.00;99.90;;;;;;5073880;28;20303;-74
2022/04/27 10:01:45;;;;;;;;;;;13.00;99.90;;;;;;5072433;28;19917;-71
2022/04/27 10:04:11;;;;;;;;;;;13.00;99.90;;;;;;5074109;28;19925;-75
2022/04/27 10:06:37;;;;;;;;;;;12.90;99.50;;;;;;5073498;28;19909;-72
2022/04/27 10:09:03;;;;;;;;;;;12.80;99.90;;;;;;5067104;28;20381;-72
2022/04/27 10:11:31;;;;;;;;;;;12.70;99.90;;;;;;5067295;28;20022;-73
2022/04/27 10:13:56;;;;;;;;;;;12.30;99.90;;;;;;5074066;28;19923;-72
2022/04/27 10:16:23;;;;;;;;;;;12.30;99.90;;;;;;5065915;28;20270;-75
2022/04/27 10:18:49;;;;;;;;;;;12.50;99.90;;;;;;5064850;28;19913;-75
2022/04/27 10:21:39;;;;;;;;;;;12.40;99.90;;;;;;5073910;28;19948;-73
2022/04/27 10:24:05;;;;;;;;;;;11.90;99.90;;;;;;5069528;28;20319;-72
2022/04/27 10:26:30;;;;;;;;;;;12.00;99.90;;;;;;5069271;28;19921;-75
2022/04/27 10:29:00;;;;;;;;;;;12.10;99.90;;;;;;5067179;28;19913;-73
2022/04/27 10:31:40;;;;;;;;;;;12.30;99.90;;;;;;5068230;28;19917;-72
2022/04/27 10:34:22;;;;;;;;;;;12.10;99.90;;;;;;5072580;28;20322;-73
2022/04/27 10:36:49;;;;;;;;;;;12.00;99.90;;;;;;5065325;28;19937;-75
2022/04/27 10:39:19;;;;;;;;;;;12.00;99.90;;;;;;5064057;28;20197;-74
2022/04/27 10:41:52;;;;;;;;;;;11.90;99.90;;;;;;5065526;28;19927;-73
2022/04/27 10:44:17;;;;;;;;;;;11.80;99.90;;;;;;5065330;28;20364;-73
2022/04/27 10:46:44;;;;;;;;;;;11.70;99.90;;;;;;5073934;28;19939;-74
2022/04/27 10:49:26;;;;;;;;;;;11.80;99.90;;;;;;5074747;28;19909;-73
2022/04/27 10:51:58;;;;;;;;;;;11.90;99.90;;;;;;5066961;28;20008;-73
2022/04/27 10:54:28;;;;;;;;;;;11.90;99.90;;;;;;5064296;28;20345;-73
2022/04/27 10:56:55;;;;;;;;;;;12.00;99.90;;;;;;5069713;28;19923;-72
2022/04/27 10:59:39;;;;;;;;;;;11.90;99.90;;;;;;5074265;28;19966;-75
2022/04/27 11:02:05;;;;;;;;;;;11.80;99.90;;;;;;5063450;28;19921;-73
2022/04/27 11:04:33;;;;;;;;;;;11.90;99.90;;;;;;5072036;28;20211;-72
2022/04/27 11:07:18;;;;;;;;;;;11.80;99.90;;;;;;5074865;28;19912;-74
2022/04/27 11:09:52;;;;;;;;;;;11.80;99.90;;;;;;5075803;28;19916;-74
2022/04/27 11:12:18;;;;;;;;;;;11.90;99.90;;;;;;5076456;28;19966;-72
2022/04/27 11:14:45;;;;;;;;;;;12.10;99.90;;;;;;5077829;28;20211;-74
2022/04/27 11:17:10;;;;;;;;;;;12.00;99.90;;;;;;5074284;28;20015;-73
2022/04/27 11:19:38;;;;;;;;;;;11.90;99.90;;;;;;5076757;28;20020;-74
2022/04/27 11:22:14;;;;;;;;;;;11.90;99.90;;;;;;5072759;28;20350;-74
2022/04/27 11:24:42;;;;;;;;;;;11.90;99.90;;;;;;5072839;28;19916;-74
2022/04/27 11:27:08;;;;;;;;;;;12.20;99.90;;;;;;5076885;28;19909;-72
2022/04/27 11:29:35;;;;;;;;;;;12.30;99.90;;;;;;5073852;28;19920;-73
2022/04/27 11:32:05;;;;;;;;;;;12.30;99.90;;;;;;5073535;28;19913;-71
2022/04/27 11:34:31;;;;;;;;;;;12.40;99.90;;;;;;5071813;28;19986;-73
2022/04/27 11:36:57;;;;;;;;;;;12.50;99.90;;;;;;5066055;28;19924;-74
2022/04/27 11:39:23;;;;;;;;;;;12.60;99.90;;;;;;5073706;28;19912;-73
2022/04/27 11:42:01;;;;;;;;;;;12.80;99.90;;;;;;5072355;28;19920;-73
2022/04/27 11:44:27;;;;;;;;;;;13.10;99.90;;;;;;5071123;28;19912;-73
2022/04/27 11:46:53;;;;;;;;;;;13.30;99.90;;;;;;5073201;28;19916;-72
2022/04/27 11:49:18;;;;;;;;;;;13.30;99.90;;;;;;5073030;28;19920;-73
2022/04/27 11:51:44;;;;;;;;;;;13.70;99.90;;;;;;5071373;28;19912;-72
2022/04/27 11:54:10;;;;;;;;;;;13.30;99.90;;;;;;5071008;28;19923;-71
2022/04/27 11:56:41;;;;;;;;;;;13.20;99.90;;;;;;5068777;28;20003;-71
2022/04/27 11:59:07;;;;;;;;;;;13.00;99.90;;;;;;5071965;28;20276;-73
2022/04/27 12:01:34;;;;;;;;;;;13.10;99.90;;;;;;5071242;28;19925;-76
2022/04/27 12:04:00;;;;;;;;;;;13.40;99.90;;;;;;5059613;28;19916;-72
2022/04/27 12:06:26;;;;;;;;;;;13.00;99.90;;;;;;5070842;28;19921;-73
2022/04/27 12:08:52;;;;;;;;;;;12.90;99.90;;;;;;5065138;28;19920;-71
2022/04/27 12:11:22;;;;;;;;;;;13.10;99.90;;;;;;5073787;28;19962;-75
2022/04/27 12:13:48;;;;;;;;;;;13.10;99.90;;;;;;5073386;28;20212;-76
2022/04/27 12:16:13;;;;;;;;;;;13.00;99.90;;;;;;5069552;28;19928;-71
2022/04/27 12:18:49;;;;;;;;;;;12.80;99.90;;;;;;5073179;28;19923;-72
2022/04/27 12:21:25;;;;;;;;;;;12.70;99.90;;;;;;5072248;28;19952;-72
2022/04/27 12:23:51;;;;;;;;;;;12.80;99.90;;;;;;5072558;28;20570;-73
2022/04/27 12:26:17;;;;;;;;;;;12.80;99.90;;;;;;5071805;28;19936;-73
2022/04/27 12:28:46;;;;;;;;;;;13.00;99.90;;;;;;5073960;28;19916;-72
2022/04/27 12:31:11;;;;;;;;;;;13.00;99.90;;;;;;5073605;28;19946;-72
2022/04/27 12:33:38;;;;;;;;;;;13.00;99.90;;;;;;5074001;28;19909;-72
2022/04/27 12:39:02;;;;;;;;;;;12.80;99.90;;;;;;5058762;28;19990;-76
2022/04/27 12:41:32;;;;;;;;;;;13.00;99.90;;;;;;5063208;28;19982;-72
2022/04/27 12:44:05;;;;;;;;;;;12.90;99.90;;;;;;5072180;28;19913;-72
2022/04/27 12:46:30;;;;;;;;;;;12.90;99.90;;;;;;5054146;28;19939;-72
2022/04/27 12:49:03;;;;;;;;;;;13.30;99.90;;;;;;5064850;28;20308;-71
2022/04/27 12:51:29;;;;;;;;;;;13.20;99.90;;;;;;5071167;28;19963;-76
2022/04/27 12:53:54;;;;;;;;;;;13.00;99.90;;;;;;5068704;28;19920;-74
2022/04/27 12:56:22;;;;;;;;;;;13.00;99.90;;;;;;5068619;28;19939;-74
2022/04/27 12:59:03;;;;;;;;;;;13.00;99.90;;;;;;5076700;28;19916;-72
2022/04/27 13:01:28;;;;;;;;;;;13.00;99.90;;;;;;5069753;28;20236;-73
2022/04/27 13:03:54;;;;;;;;;;;12.90;99.90;;;;;;5066819;28;19920;-73
2022/04/27 13:06:19;;;;;;;;;;;12.90;99.90;;;;;;5070537;28;19913;-71
2022/04/27 13:08:45;;;;;;;;;;;12.80;99.90;;;;;;5038657;28;20173;-72
2022/04/27 13:13:55;;;;;;;;;;;12.80;99.90;;;;;;5064491;28;19981;-71
2022/04/27 13:16:23;;;;;;;;;;;12.70;99.90;;;;;;5070494;28;19916;-72
2022/04/27 13:18:48;;;;;;;;;;;12.80;99.90;;;;;;5069957;28;19919;-72
2022/04/27 13:21:15;;;;;;;;;;;12.60;99.90;;;;;;5069146;28;20636;-72
2022/04/27 13:23:41;;;;;;;;;;;12.70;99.90;;;;;;5068981;28;20315;-76
2022/04/27 13:26:07;;;;;;;;;;;12.70;99.90;;;;;;5063286;28;19924;-72
2022/04/27 13:28:32;;;;;;;;;;;12.70;99.90;;;;;;5068358;28;19923;-72
2022/04/27 13:30:59;;;;;;;;;;;12.50;99.90;;;;;;5068183;28;20044;-72
2022/04/27 13:33:24;;;;;;;;;;;12.60;99.90;;;;;;5067489;28;19920;-73
2022/04/27 13:35:50;;;;;;;;;;;12.50;99.90;;;;;;5066745;28;19924;-72
2022/04/27 13:38:15;;;;;;;;;;;12.20;99.90;;;;;;5068403;28;20303;-73
2022/04/27 13:40:41;;;;;;;;;;;12.20;99.90;;;;;;5051206;28;19913;-76
2022/04/27 13:43:07;;;;;;;;;;;12.10;99.90;;;;;;5066157;28;19955;-72
2022/04/27 13:45:32;;;;;;;;;;;12.30;99.90;;;;;;5069642;28;20372;-72
2022/04/27 13:47:59;;;;;;;;;;;12.30;99.90;;;;;;5069351;28;20290;-72
2022/04/27 13:50:24;;;;;;;;;;;12.20;99.90;;;;;;5071253;28;19916;-72
2022/04/27 13:52:50;;;;;;;;;;;12.10;99.90;;;;;;5069277;28;19935;-72
2022/04/27 13:55:16;;;;;;;;;;;12.20;99.90;;;;;;5071095;28;19912;-72
2022/04/27 13:57:42;;;;;;;;;;;12.30;99.90;;;;;;5070930;28;19922;-72
2022/04/27 14:00:07;;;;;;;;;;;12.40;99.90;;;;;;5071085;28;19951;-72
2022/04/27 14:02:33;;;;;;;;;;;12.30;99.90;;;;;;5069585;28;20002;-73
2022/04/27 14:05:00;;;;;;;;;;;12.20;99.90;;;;;;5068105;28;19920;-72
2022/04/27 14:07:27;;;;;;;;;;;12.10;99.90;;;;;;5061796;28;20011;-72
2022/04/27 14:09:53;;;;;;;;;;;12.00;99.90;;;;;;5069255;28;19916;-72
2022/04/27 14:15:02;;;;;;;;;;;12.00;99.90;;;;;;5071799;28;19922;-71
2022/04/27 14:20:12;;;;;;;;;;;12.00;99.90;;;;;;5073695;28;19920;-72
2022/04/27 14:22:38;;;;;;;;;;;12.00;99.90;;;;;;5070218;28;19924;-71
2022/04/27 14:25:03;;;;;;;;;;;12.20;99.90;;;;;;5075533;28;19912;-72
2022/04/27 14:27:29;;;;;;;;;;;12.10;99.90;;;;;;5073674;28;20204;-72
2022/04/27 14:29:55;;;;;;;;;;;12.10;99.90;;;;;;5071085;28;20003;-75
2022/04/27 14:32:20;;;;;;;;;;;12.20;99.90;;;;;;5074353;28;19954;-71
2022/04/27 14:34:46;;;;;;;;;;;12.30;99.90;;;;;;5072210;28;19912;-71
2022/04/27 14:37:12;;;;;;;;;;;12.10;99.90;;;;;;5074339;28;19909;-72
2022/04/27 14:39:38;;;;;;;;;;;12.20;99.90;;;;;;5073325;28;19927;-72
2022/04/27 14:42:04;;;;;;;;;;;12.30;99.90;;;;;;5076007;28;19926;-72
2022/04/27 14:44:29;;;;;;;;;;;12.20;99.90;;;;;;5076774;28;19919;-72
2022/04/27 14:46:56;;;;;;;;;;;12.10;99.90;;;;;;5077063;28;20285;-72
2022/04/27 14:49:22;;;;;;;;;;;12.10;99.90;;;;;;5075674;28;19913;-72